Wilson Lahn — 8PUO — position and weather

sailwx.info

Track history (hours):
 
Tides and Currents Weather Stations Pressure Air Temp Water Temp Dewpoint Dewpoint Depression Visibility Wind Speed Wind Dir Waves Ship Positions

Wilson Lahn

Last reported at 2015-May-30 03:30 UTC. Time now 2015-May-30 08:29 UTC.
Position N 57°49' E 010°38'.

Length 83 m; draft 4.8 m.

Type: Cargo ship. MMSI: 314259000.

Date/timePositionNaut miles runAvg speedWind from/ knotsBaromVisibWave heightAir tempDewpointWater temp
2015-May-30 03:30N 57°49' E 010°38'8 7.7
2015-May-30 02:27N 57°45' E 010°52'8 8.9
2015-May-30 01:33N 57°40' E 011°03'9 9.3
2015-May-30 00:33N 57°33' E 011°15'10 9.7
2015-May-29 23:33N 57°26' E 011°27'1010.3
2015-May-29 22:33N 57°16' E 011°33'1210.4
2015-May-29 21:27N 57°05' E 011°41'9 9.9
2015-May-29 20:33N 56°57' E 011°46'10 9.6
2015-May-29 19:33N 56°48' E 011°52'9 8.6
2015-May-29 18:33N 56°40' E 011°57'10 9.7
2015-May-29 17:33N 56°31' E 012°04'9 9.1
2015-May-29 16:33N 56°23' E 012°13'9 9.2
2015-May-29 15:33N 56°16' E 012°23'9 9.3
2015-May-29 14:33N 56°08' E 012°32'10 9.6
2015-May-29 13:33N 56°00' E 012°41'10 9.7
2015-May-29 12:33N 55°51' E 012°44'9 9.2
2015-May-29 11:33N 55°43' E 012°52'8 7.5
2015-May-29 10:33N 55°37' E 013°02'0 0.0
2015-May-29 09:30N 55°37' E 013°02'0 0.0
2015-May-29 08:33N 55°37' E 013°02'0 0.0
2015-May-29 07:33N 55°37' E 013°02'0 0.0
2015-May-29 06:33N 55°37' E 013°02'0 0.0
2015-May-29 05:33N 55°37' E 013°02'0 0.0
2015-May-29 04:33N 55°37' E 013°02'0 0.0
2015-May-29 03:30N 55°37' E 013°02'0 0.0
2015-May-29 02:33N 55°37' E 013°02'0 0.0
2015-May-29 01:33N 55°37' E 013°02'0 0.0
2015-May-29 00:33N 55°37' E 013°02'0 0.0
2015-May-28 23:33N 55°37' E 013°02'0 0.0
2015-May-28 22:33N 55°37' E 013°02'0 0.0
2015-May-28 21:33N 55°37' E 013°02'0 0.0
2015-May-28 20:30N 55°37' E 013°02'0 0.0
2015-May-28 19:33N 55°37' E 013°02'0 0.0
2015-May-28 18:33N 55°37' E 013°02'0 0.0
2015-May-28 17:33N 55°37' E 013°02'0 0.0
2015-May-28 16:33N 55°37' E 013°02'0 0.0
2015-May-28 15:33N 55°37' E 013°02'0 0.0
2015-May-28 14:33N 55°37' E 013°02'0 0.0
2015-May-28 13:33N 55°37' E 013°02'0 0.0
2015-May-28 12:33N 55°37' E 013°02'0 0.0
2015-May-28 11:33N 55°37' E 013°02'0 0.0
2015-May-28 10:33N 55°37' E 013°02'8 7.7
2015-May-28 09:33N 55°43' E 012°52'1110.9
2015-May-28 08:33N 55°52' E 012°41'10 9.8
2015-May-28 07:33N 56°02' E 012°38'9 8.9
2015-May-28 06:33N 56°08' E 012°28'1110.7
2015-May-28 05:33N 56°14' E 012°12'11 9.1
2015-May-28 04:18N 56°24' E 012°01'710.1
2015-May-28 03:33N 56°31' E 011°58'1010.3
2015-May-28 02:33N 56°42' E 011°54'1010.4
2015-May-28 01:33N 56°51' E 011°48'1010.5
2015-May-28 00:33N 57°01' E 011°42'1110.5
2015-May-27 23:32N 57°12' E 011°35'1010.2
2015-May-27 22:33N 57°21' E 011°29'1010.3
2015-May-27 21:33N 57°30' E 011°22'10 9.7
2015-May-27 20:33N 57°40' E 011°18'10 9.7
2015-May-27 19:33N 57°49' E 011°14'9 9.5
2015-May-27 18:33N 57°58' E 011°10'1010.0
2015-May-27 17:33N 58°08' E 011°05'9 8.9
2015-May-27 16:33N 58°17' E 011°01'9 8.8
2015-May-27 15:33N 58°25' E 010°57'9 8.7
2015-May-27 14:33N 58°34' E 010°53'10 8.6
2015-May-27 13:24N 58°43' E 010°49'8 9.1
2015-May-27 12:33N 58°51' E 010°47'9 9.4
2015-May-27 11:33N 59°00' E 010°45'7 7.2
2015-May-27 10:33N 59°03' E 010°58'8 7.4
2015-May-27 09:31N 59°11' E 010°57'0 0.0
2015-May-27 08:31N 59°11' E 010°57'0 0.0
2015-May-27 07:31N 59°11' E 010°57'0 0.0
2015-May-27 06:28N 59°11' E 010°57'0 0.0
2015-May-27 05:31N 59°11' E 010°57'0 0.0
2015-May-27 04:31N 59°11' E 010°57'0 0.0
2015-May-27 03:31N 59°11' E 010°57'0 0.0
2015-May-27 02:31N 59°11' E 010°57'0 0.0
2015-May-27 01:31N 59°11' E 010°57'0 0.0
2015-May-27 00:31N 59°11' E 010°57'0 0.0
2015-May-26 23:31N 59°11' E 010°57'0 0.0
2015-May-26 22:31N 59°11' E 010°57'0 0.0
2015-May-26 21:31N 59°11' E 010°57'0 0.0
2015-May-26 20:31N 59°11' E 010°57'0 0.0
2015-May-26 19:31N 59°11' E 010°57'0 0.0
2015-May-26 18:31N 59°11' E 010°57'0 0.0
2015-May-26 17:31N 59°11' E 010°57'0 0.0
2015-May-26 16:31N 59°11' E 010°57'0 0.0
2015-May-26 15:31N 59°11' E 010°57'0 0.0
2015-May-26 14:31N 59°11' E 010°57'0 0.0
2015-May-26 13:31N 59°11' E 010°57'0 0.0
2015-May-26 12:31N 59°11' E 010°57'0 0.0
2015-May-26 11:31N 59°11' E 010°57'3 3.4
2015-May-26 10:33N 59°08' E 010°54'10 9.6
2015-May-26 09:34N 59°16' E 010°42'1110.8
2015-May-26 08:33N 59°25' E 010°30'0 0.5
2015-May-26 07:31N 59°25' E 010°30'0 0.0
2015-May-26 06:28N 59°25' E 010°30'0 0.0
2015-May-26 05:31N 59°25' E 010°30'0 0.0
2015-May-26 04:31N 59°25' E 010°30'0 0.0
2015-May-26 03:31N 59°25' E 010°30'0 0.0
2015-May-26 02:31N 59°25' E 010°30'0 0.0
2015-May-26 01:31N 59°25' E 010°30'0 0.0
2015-May-26 00:31N 59°25' E 010°30'0 0.0
2015-May-25 23:31N 59°25' E 010°30'0 0.0
2015-May-25 22:31N 59°25' E 010°30'0 0.0
2015-May-25 21:31N 59°25' E 010°30'0 0.0
2015-May-25 20:31N 59°25' E 010°30'0 0.0
2015-May-25 19:31N 59°25' E 010°30'0 0.0
2015-May-25 18:31N 59°25' E 010°30'2 2.6
2015-May-25 17:33N 59°22' E 010°30'1111.2
2015-May-25 16:33N 59°12' E 010°36'1010.1
2015-May-25 15:33N 59°02' E 010°34'9 9.0
2015-May-25 14:33N 58°56' E 010°20'10 9.1
2015-May-25 13:26N 58°52' E 010°02'8 8.7
2015-May-25 12:33N 58°48' E 009°49'9 8.6
2015-May-25 11:33N 58°43' E 009°36'35 8.6
2015-May-25 07:30N 58°17' E 008°50'8 8.7
2015-May-25 06:33N 58°12' E 008°40'9 8.7
2015-May-25 05:33N 58°05' E 008°28'267 9.5
2015-May-24 01:33N 54°05' E 004°58'13 9.3
2015-May-24 00:11N 53°52' E 004°55'7 9.5
2015-May-23 23:30N 53°46' E 004°53'10 9.9
2015-May-23 22:27N 53°36' E 004°50'1010.8
2015-May-23 21:33N 53°27' E 004°43'2511.2
2015-May-23 19:17N 53°04' E 004°24'810.6
2015-May-23 18:33N 52°57' E 004°18'1010.2
2015-May-23 17:33N 52°48' E 004°10'9 9.4
2015-May-23 16:33N 52°40' E 004°03'9 8.8
2015-May-23 15:33N 52°32' E 003°56'9 8.4
2015-May-23 14:31N 52°24' E 003°53'8 8.0
2015-May-23 13:32N 52°16' E 003°53'8 8.2
2015-May-23 12:33N 52°08' E 003°55'9 8.6
2015-May-23 11:33N 52°00' E 004°02'1313.3
2015-May-23 10:33N 51°54' E 004°21'4 4.0
2015-May-23 09:31N 51°54' E 004°27'0 0.0
2015-May-23 08:31N 51°54' E 004°27'0 0.0
2015-May-23 07:31N 51°54' E 004°27'0 0.0
2015-May-23 06:31N 51°54' E 004°27'0 0.0
2015-May-23 05:31N 51°54' E 004°27'0 0.0
2015-May-23 04:31N 51°54' E 004°27'0 0.0
2015-May-23 03:28N 51°54' E 004°27'3 2.8
2015-May-23 02:33N 51°54' E 004°32'10 9.1
2015-May-23 01:30N 51°49' E 004°45'2210.8
2015-May-22 23:26N 51°48' E 005°21'1310.6
2015-May-22 22:14N 51°54' E 005°40'3810.3
2015-May-22 18:33N 51°39' E 006°36'7 0.2
2015-May-21 03:32N 51°32' E 006°41'4 4.2
2015-May-21 02:32N 51°35' E 006°36'38 5.8
2015-May-20 20:05N 51°53' E 005°43'13 7.0
2015-May-20 18:14N 51°50' E 005°23'4 6.1
2015-May-20 17:32N 51°49' E 005°16'23 7.8
2015-May-20 14:33N 51°52' E 004°39'7 7.0
2015-May-20 13:33N 51°54' E 004°28'1 0.6
2015-May-20 12:31N 51°54' E 004°27'0 0.0
2015-May-20 11:31N 51°53' E 004°27'0 0.0
2015-May-20 10:28N 51°53' E 004°27'0 0.2
2015-May-20 09:33N 51°53' E 004°27'7 6.7
2015-May-20 08:33N 51°54' E 004°16'8 7.6
2015-May-20 07:33N 51°59' E 004°06'10 9.9
2015-May-20 06:33N 52°01' E 003°50'  
Track history (hours):
 
Tides and Currents Weather Stations Pressure Air Temp Water Temp Dewpoint Dewpoint Depression Visibility Wind Speed Wind Dir Waves Ship Positions

Wilson Lahn

Last reported at 2015-May-30 03:30 UTC. Time now 2015-May-30 08:29 UTC.
Position N 57°49' E 010°38'.

Length 83 m; draft 4.8 m.

Type: Cargo ship. MMSI: 314259000.

Date/timePositionNaut miles runAvg speedWind from/ knotsBaromVisibWave heightAir tempDewpointWater temp
2015-May-30 03:30N 57°49' E 010°38'8 7.7
2015-May-30 02:27N 57°45' E 010°52'8 8.9
2015-May-30 01:33N 57°40' E 011°03'9 9.3
2015-May-30 00:33N 57°33' E 011°15'10 9.7
2015-May-29 23:33N 57°26' E 011°27'1010.3
2015-May-29 22:33N 57°16' E 011°33'1210.4
2015-May-29 21:27N 57°05' E 011°41'9 9.9
2015-May-29 20:33N 56°57' E 011°46'10 9.6
2015-May-29 19:33N 56°48' E 011°52'9 8.6
2015-May-29 18:33N 56°40' E 011°57'10 9.7
2015-May-29 17:33N 56°31' E 012°04'9 9.1
2015-May-29 16:33N 56°23' E 012°13'9 9.2
2015-May-29 15:33N 56°16' E 012°23'9 9.3
2015-May-29 14:33N 56°08' E 012°32'10 9.6
2015-May-29 13:33N 56°00' E 012°41'10 9.7
2015-May-29 12:33N 55°51' E 012°44'9 9.2
2015-May-29 11:33N 55°43' E 012°52'8 7.5
2015-May-29 10:33N 55°37' E 013°02'0 0.0
2015-May-29 09:30N 55°37' E 013°02'0 0.0
2015-May-29 08:33N 55°37' E 013°02'0 0.0
2015-May-29 07:33N 55°37' E 013°02'0 0.0
2015-May-29 06:33N 55°37' E 013°02'0 0.0
2015-May-29 05:33N 55°37' E 013°02'0 0.0
2015-May-29 04:33N 55°37' E 013°02'0 0.0
2015-May-29 03:30N 55°37' E 013°02'0 0.0
2015-May-29 02:33N 55°37' E 013°02'0 0.0
2015-May-29 01:33N 55°37' E 013°02'0 0.0
2015-May-29 00:33N 55°37' E 013°02'0 0.0
2015-May-28 23:33N 55°37' E 013°02'0 0.0
2015-May-28 22:33N 55°37' E 013°02'0 0.0
2015-May-28 21:33N 55°37' E 013°02'0 0.0
2015-May-28 20:30N 55°37' E 013°02'0 0.0
2015-May-28 19:33N 55°37' E 013°02'0 0.0
2015-May-28 18:33N 55°37' E 013°02'0 0.0
2015-May-28 17:33N 55°37' E 013°02'0 0.0
2015-May-28 16:33N 55°37' E 013°02'0 0.0
2015-May-28 15:33N 55°37' E 013°02'0 0.0
2015-May-28 14:33N 55°37' E 013°02'0 0.0
2015-May-28 13:33N 55°37' E 013°02'0 0.0
2015-May-28 12:33N 55°37' E 013°02'0 0.0
2015-May-28 11:33N 55°37' E 013°02'0 0.0
2015-May-28 10:33N 55°37' E 013°02'8 7.7
2015-May-28 09:33N 55°43' E 012°52'1110.9
2015-May-28 08:33N 55°52' E 012°41'10 9.8
2015-May-28 07:33N 56°02' E 012°38'9 8.9
2015-May-28 06:33N 56°08' E 012°28'1110.7
2015-May-28 05:33N 56°14' E 012°12'11 9.1
2015-May-28 04:18N 56°24' E 012°01'710.1
2015-May-28 03:33N 56°31' E 011°58'1010.3
2015-May-28 02:33N 56°42' E 011°54'1010.4
2015-May-28 01:33N 56°51' E 011°48'1010.5
2015-May-28 00:33N 57°01' E 011°42'1110.5
2015-May-27 23:32N 57°12' E 011°35'1010.2
2015-May-27 22:33N 57°21' E 011°29'1010.3
2015-May-27 21:33N 57°30' E 011°22'10 9.7
2015-May-27 20:33N 57°40' E 011°18'10 9.7
2015-May-27 19:33N 57°49' E 011°14'9 9.5
2015-May-27 18:33N 57°58' E 011°10'1010.0
2015-May-27 17:33N 58°08' E 011°05'9 8.9
2015-May-27 16:33N 58°17' E 011°01'9 8.8
2015-May-27 15:33N 58°25' E 010°57'9 8.7
2015-May-27 14:33N 58°34' E 010°53'10 8.6
2015-May-27 13:24N 58°43' E 010°49'8 9.1
2015-May-27 12:33N 58°51' E 010°47'9 9.4
2015-May-27 11:33N 59°00' E 010°45'7 7.2
2015-May-27 10:33N 59°03' E 010°58'8 7.4
2015-May-27 09:31N 59°11' E 010°57'0 0.0
2015-May-27 08:31N 59°11' E 010°57'0 0.0
2015-May-27 07:31N 59°11' E 010°57'0 0.0
2015-May-27 06:28N 59°11' E 010°57'0 0.0
2015-May-27 05:31N 59°11' E 010°57'0 0.0
2015-May-27 04:31N 59°11' E 010°57'0 0.0
2015-May-27 03:31N 59°11' E 010°57'0 0.0
2015-May-27 02:31N 59°11' E 010°57'0 0.0
2015-May-27 01:31N 59°11' E 010°57'0 0.0
2015-May-27 00:31N 59°11' E 010°57'0 0.0
2015-May-26 23:31N 59°11' E 010°57'0 0.0
2015-May-26 22:31N 59°11' E 010°57'0 0.0
2015-May-26 21:31N 59°11' E 010°57'0 0.0
2015-May-26 20:31N 59°11' E 010°57'0 0.0
2015-May-26 19:31N 59°11' E 010°57'0 0.0
2015-May-26 18:31N 59°11' E 010°57'0 0.0
2015-May-26 17:31N 59°11' E 010°57'0 0.0
2015-May-26 16:31N 59°11' E 010°57'0 0.0
2015-May-26 15:31N 59°11' E 010°57'0 0.0
2015-May-26 14:31N 59°11' E 010°57'0 0.0
2015-May-26 13:31N 59°11' E 010°57'0 0.0
2015-May-26 12:31N 59°11' E 010°57'0 0.0
2015-May-26 11:31N 59°11' E 010°57'3 3.4
2015-May-26 10:33N 59°08' E 010°54'10 9.6
2015-May-26 09:34N 59°16' E 010°42'1110.8
2015-May-26 08:33N 59°25' E 010°30'0 0.5
2015-May-26 07:31N 59°25' E 010°30'0 0.0
2015-May-26 06:28N 59°25' E 010°30'0 0.0
2015-May-26 05:31N 59°25' E 010°30'0 0.0
2015-May-26 04:31N 59°25' E 010°30'0 0.0
2015-May-26 03:31N 59°25' E 010°30'0 0.0
2015-May-26 02:31N 59°25' E 010°30'0 0.0
2015-May-26 01:31N 59°25' E 010°30'0 0.0
2015-May-26 00:31N 59°25' E 010°30'0 0.0
2015-May-25 23:31N 59°25' E 010°30'0 0.0
2015-May-25 22:31N 59°25' E 010°30'0 0.0
2015-May-25 21:31N 59°25' E 010°30'0 0.0
2015-May-25 20:31N 59°25' E 010°30'0 0.0
2015-May-25 19:31N 59°25' E 010°30'0 0.0
2015-May-25 18:31N 59°25' E 010°30'2 2.6
2015-May-25 17:33N 59°22' E 010°30'1111.2
2015-May-25 16:33N 59°12' E 010°36'1010.1
2015-May-25 15:33N 59°02' E 010°34'9 9.0
2015-May-25 14:33N 58°56' E 010°20'10 9.1
2015-May-25 13:26N 58°52' E 010°02'8 8.7
2015-May-25 12:33N 58°48' E 009°49'9 8.6
2015-May-25 11:33N 58°43' E 009°36'35 8.6
2015-May-25 07:30N 58°17' E 008°50'8 8.7
2015-May-25 06:33N 58°12' E 008°40'9 8.7
2015-May-25 05:33N 58°05' E 008°28'267 9.5
2015-May-24 01:33N 54°05' E 004°58'13 9.3
2015-May-24 00:11N 53°52' E 004°55'7 9.5
2015-May-23 23:30N 53°46' E 004°53'10 9.9
2015-May-23 22:27N 53°36' E 004°50'1010.8
2015-May-23 21:33N 53°27' E 004°43'2511.2
2015-May-23 19:17N 53°04' E 004°24'810.6
2015-May-23 18:33N 52°57' E 004°18'1010.2
2015-May-23 17:33N 52°48' E 004°10'9 9.4
2015-May-23 16:33N 52°40' E 004°03'9 8.8
2015-May-23 15:33N 52°32' E 003°56'9 8.4
2015-May-23 14:31N 52°24' E 003°53'8 8.0
2015-May-23 13:32N 52°16' E 003°53'8 8.2
2015-May-23 12:33N 52°08' E 003°55'9 8.6
2015-May-23 11:33N 52°00' E 004°02'1313.3
2015-May-23 10:33N 51°54' E 004°21'4 4.0
2015-May-23 09:31N 51°54' E 004°27'0 0.0
2015-May-23 08:31N 51°54' E 004°27'0 0.0
2015-May-23 07:31N 51°54' E 004°27'0 0.0
2015-May-23 06:31N 51°54' E 004°27'0 0.0
2015-May-23 05:31N 51°54' E 004°27'0 0.0
2015-May-23 04:31N 51°54' E 004°27'0 0.0
2015-May-23 03:28N 51°54' E 004°27'3 2.8
2015-May-23 02:33N 51°54' E 004°32'10 9.1
2015-May-23 01:30N 51°49' E 004°45'2210.8
2015-May-22 23:26N 51°48' E 005°21'1310.6
2015-May-22 22:14N 51°54' E 005°40'3810.3
2015-May-22 18:33N 51°39' E 006°36'7 0.2
2015-May-21 03:32N 51°32' E 006°41'4 4.2
2015-May-21 02:32N 51°35' E 006°36'38 5.8
2015-May-20 20:05N 51°53' E 005°43'13 7.0
2015-May-20 18:14N 51°50' E 005°23'4 6.1
2015-May-20 17:32N 51°49' E 005°16'23 7.8
2015-May-20 14:33N 51°52' E 004°39'7 7.0
2015-May-20 13:33N 51°54' E 004°28'1 0.6
2015-May-20 12:31N 51°54' E 004°27'0 0.0
2015-May-20 11:31N 51°53' E 004°27'0 0.0
2015-May-20 10:28N 51°53' E 004°27'0 0.2
2015-May-20 09:33N 51°53' E 004°27'7 6.7
2015-May-20 08:33N 51°54' E 004°16'8 7.6
2015-May-20 07:33N 51°59' E 004°06'10 9.9
2015-May-20 06:33N 52°01' E 003°50'  

Dump ship's entire track history